Arverne, New York
Current Conditions -  °F | °C
As of 7:45 AM on Thursday 23 Oct 2014 (Local Time) from KJFK Reporting Station
Light Rain Light Rain  
Wind Chill: 52°   Ceiling: 1900
Heat Index: 52°   Visibility: 6mi
Dew Point: 46°   Wind: 20mph
Humidity: 82%   Direction: 340°NNW
Pressure: 29.68"   Gusts: NA
Location:  40.59°N, 73.8°W
Report Text: KJFK 231145Z 34017KT 6SM -RA BR SCT014 BKN019 BKN085 BKN250 11/08 A2968 RMK AO2 RAB1057 P0000 $
Loading
Personal Weather Stations






























Interactive Weather Map
Tropical Storm Tracking
New forecast layout! Learn more

10-Day Weather Forecast

Advertisements
Track Severe Weather on mobile